Time;durP1;ratioP1;P1;durP2;ratioP2;P2;SDS_P1;SDS_P2;PMS_P1;PMS_P2;Temp;Humidity;BMP_temperature;BMP_pressure;BME280_temperature;BME280_humidity;BME280_pressure;Samples;Min_cycle;Max_cycle;Signal;HPM_P1;HPM_P2
2022/11/28 00:00:37;;;;;;;7.88;4.97;;;;;;;21.42;43.06;95465.59;4985924;28;20046;-61
2022/11/28 00:03:03;;;;;;;6.78;4.45;;;;;;;21.41;43.02;95464.09;5005779;28;20049;-62
2022/11/28 00:05:28;;;;;;;6.25;4.25;;;;;;;21.42;43.35;95467.56;5007695;28;20045;-62
2022/11/28 00:07:54;;;;;;;6.55;4.28;;;;;;;21.42;43.10;95468.31;4976703;28;20419;-62
2022/11/28 00:10:20;;;;;;;6.40;4.18;;;;;;;21.42;43.15;95483.84;5007286;28;20741;-61
2022/11/28 00:12:46;;;;;;;6.05;4.10;;;;;;;21.43;43.10;95477.94;5007558;28;20077;-62
2022/11/28 00:15:11;;;;;;;6.00;3.90;;;;;;;21.45;43.00;95478.97;4989686;28;20123;-59
2022/11/28 00:17:37;;;;;;;6.30;4.10;;;;;;;21.42;43.08;95471.78;5006990;28;20041;-63
2022/11/28 00:20:02;;;;;;;7.05;4.57;;;;;;;21.36;43.26;95456.69;5007236;28;20045;-62
2022/11/28 00:22:28;;;;;;;5.75;3.97;;;;;;;21.40;43.04;95462.59;5008506;28;20046;-63
2022/11/28 00:24:54;;;;;;;7.45;4.30;;;;;;;21.37;43.41;95469.00;5008312;28;20052;-61
2022/11/28 00:27:19;;;;;;;5.88;4.13;;;;;;;21.33;43.21;95467.75;4972001;28;20510;-61
2022/11/28 00:29:45;;;;;;;6.10;3.88;;;;;;;21.22;43.10;95457.56;5000104;28;20192;-62
2022/11/28 00:32:10;;;;;;;6.20;4.22;;;;;;;21.18;43.14;95448.91;4991409;28;20030;-62
2022/11/28 00:34:36;;;;;;;6.18;4.20;;;;;;;21.31;43.35;95468.22;4996807;28;20486;-61
2022/11/28 00:37:01;;;;;;;4.97;3.22;;;;;;;20.64;43.21;95369.75;4989087;28;20056;-61
2022/11/28 00:39:27;;;;;;;6.45;3.92;;;;;;;20.54;43.34;95349.47;5006997;28;20514;-61
2022/11/28 00:41:52;;;;;;;6.68;4.20;;;;;;;21.30;43.21;95463.28;4989610;28;20769;-62
2022/11/28 00:44:17;;;;;;;5.13;3.53;;;;;;;21.27;43.17;95465.00;4988850;28;20096;-60
2022/11/28 00:46:43;;;;;;;4.57;3.50;;;;;;;21.27;43.26;95465.00;5007824;28;20489;-62
2022/11/28 00:49:08;;;;;;;5.60;3.95;;;;;;;19.87;43.11;95248.38;5006606;28;20089;-61
2022/11/28 00:51:34;;;;;;;5.32;3.80;;;;;;;21.28;43.31;95477.34;4989750;28;20046;-61
2022/11/28 00:54:00;;;;;;;4.88;3.55;;;;;;;21.29;42.98;95462.53;4970440;28;20057;-61
2022/11/28 00:56:31;;;;;;;6.15;3.90;;;;;;;21.19;43.47;95474.81;4989304;28;20045;-61
2022/11/28 00:58:56;;;;;;;5.72;3.85;;;;;;;21.18;43.32;95456.28;4976845;28;20030;-61
2022/11/28 01:01:29;;;;;;;5.78;3.78;;;;;;;21.24;43.29;95460.56;4988264;28;20129;-62
2022/11/28 01:03:56;;;;;;;5.45;3.42;;;;;;;20.52;43.08;95357.34;5006629;28;20426;-61
2022/11/28 01:06:27;;;;;;;4.95;3.65;;;;;;;21.14;43.31;95451.09;4989444;28;20045;-60
2022/11/28 01:08:52;;;;;;;4.72;3.30;;;;;;;21.19;43.22;95453.09;5006645;28;20052;-62
2022/11/28 01:11:18;;;;;;;5.88;3.80;;;;;;;21.19;43.70;95463.94;5006848;28;20026;-63
2022/11/28 01:13:43;;;;;;;5.18;3.50;;;;;;;20.83;43.16;95403.47;4988817;28;20406;-61
2022/11/28 01:16:09;;;;;;;4.97;3.38;;;;;;;21.19;43.34;95457.78;5006742;28;20119;-62
2022/11/28 01:18:35;;;;;;;5.40;3.53;;;;;;;21.16;43.34;95459.47;5006345;28;20049;-61
2022/11/28 01:21:00;;;;;;;4.68;3.45;;;;;;;21.20;43.26;95459.28;4988311;28;20049;-61
2022/11/28 01:23:26;;;;;;;6.20;3.92;;;;;;;21.18;43.24;95457.06;5007131;28;20485;-62
2022/11/28 01:25:51;;;;;;;5.60;3.75;;;;;;;21.18;43.25;95450.84;5007175;28;20621;-61
2022/11/28 01:28:17;;;;;;;5.03;3.63;;;;;;;21.19;43.36;95453.09;5005903;28;20824;-61
2022/11/28 01:30:42;;;;;;;6.03;3.78;;;;;;;21.09;43.39;95443.66;5005270;28;20101;-61
2022/11/28 01:33:07;;;;;;;5.40;3.30;;;;;;;20.99;43.26;95439.63;4988276;28;20112;-64
2022/11/28 01:35:33;;;;;;;5.47;3.63;;;;;;;21.15;43.21;95446.38;5005532;28;20463;-63
2022/11/28 01:37:58;;;;;;;5.05;3.53;;;;;;;20.91;43.23;95409.94;4984743;28;20423;-62
2022/11/28 01:40:24;;;;;;;5.20;3.53;;;;;;;21.00;43.34;95427.56;4984541;28;20053;-61
2022/11/28 01:42:49;;;;;;;5.28;3.20;;;;;;;21.10;43.33;95439.69;4988259;28;20520;-60
2022/11/28 01:45:20;;;;;;;5.25;3.47;;;;;;;20.32;43.21;95322.16;5005965;28;20049;-61
2022/11/28 01:47:45;;;;;;;4.80;3.20;;;;;;;20.98;43.33;95427.31;4967781;28;20054;-61
2022/11/28 01:50:10;;;;;;;5.30;3.28;;;;;;;21.11;43.48;95441.19;4987891;28;20033;-61
2022/11/28 01:52:37;;;;;;;5.38;3.60;;;;;;;21.14;43.51;95461.22;4972382;28;20041;-62
2022/11/28 01:55:03;;;;;;;4.60;3.10;;;;;;;21.13;43.17;95438.00;4987610;28;20038;-62
2022/11/28 01:57:28;;;;;;;4.20;3.00;;;;;;;20.30;43.24;95302.94;4985385;28;20050;-60
2022/11/28 02:00:14;;;;;;;5.60;3.30;;;;;;;21.12;43.33;95441.94;5005297;28;20049;-61
2022/11/28 02:02:48;;;;;;;4.60;2.78;;;;;;;21.06;43.37;95433.75;4968168;28;20038;-61
2022/11/28 02:05:14;;;;;;;4.88;2.90;;;;;;;21.08;43.40;95436.00;4987147;28;20037;-61
2022/11/28 02:07:39;;;;;;;4.90;2.90;;;;;;;21.06;43.49;95433.75;5006607;28;20352;-62
2022/11/28 02:10:06;;;;;;;3.80;2.80;;;;;;;21.09;43.39;95432.78;4986800;28;20437;-60
2022/11/28 02:12:58;;;;;;;5.15;3.17;;;;;;;21.05;43.26;95424.13;4966475;28;20086;-61
2022/11/28 02:15:36;;;;;;;4.65;3.00;;;;;;;20.29;43.25;95306.84;4984199;28;20050;-61
2022/11/28 02:18:21;;;;;;;4.65;3.03;;;;;;;21.07;43.29;95429.81;4998572;28;20037;-63
2022/11/28 02:20:52;;;;;;;3.85;2.85;;;;;;;20.68;43.58;95392.75;5004498;28;20089;-62
2022/11/28 02:23:36;;;;;;;4.78;3.25;;;;;;;21.03;43.37;95423.88;5004548;28;20490;-61
2022/11/28 02:26:30;;;;;;;4.65;2.92;;;;;;;21.03;43.46;95434.72;4976472;28;20034;-62
2022/11/28 02:29:45;;;;;;;4.60;3.53;;;;;;;21.06;43.26;95427.56;5004564;28;20050;-61
2022/11/28 02:32:23;;;;;;;4.72;3.10;;;;;;;21.05;43.26;95426.09;4908757;29;20044;-61
2022/11/28 02:35:10;;;;;;;4.63;3.28;;;;;;;21.02;43.52;95427.81;4988125;28;20498;-61
2022/11/28 02:37:50;;;;;;;4.18;3.03;;;;;;;21.02;43.20;95433.22;5003322;28;20171;-60
2022/11/28 02:40:44;;;;;;;4.18;2.72;;;;;;;20.99;43.41;95417.91;5004664;28;20053;-60
2022/11/28 02:43:31;;;;;;;3.80;2.90;;;;;;;20.98;43.38;95415.69;4983803;28;20537;-61
2022/11/28 02:46:09;;;;;;;3.90;3.03;;;;;;;20.99;43.31;95417.91;5003394;28;20489;-62
2022/11/28 02:48:43;;;;;;;5.32;3.40;;;;;;;20.94;43.23;95414.41;4967872;28;20050;-60
2022/11/28 02:51:23;;;;;;;4.68;3.28;;;;;;;21.01;43.40;95441.84;4982754;28;20507;-60
2022/11/28 02:53:49;;;;;;;4.43;3.30;;;;;;;20.95;43.26;95421.34;4983997;28;20050;-60
2022/11/28 02:56:14;;;;;;;3.83;2.78;;;;;;;20.98;43.34;95421.88;4969628;28;20041;-60
2022/11/28 02:58:40;;;;;;;3.70;2.80;;;;;;;20.88;43.12;95411.69;5004818;28;20049;-62
2022/11/28 03:01:11;;;;;;;3.85;2.55;;;;;;;20.98;43.48;95430.00;4986367;28;20133;-61
2022/11/28 03:03:39;;;;;;;3.80;2.85;;;;;;;20.95;43.68;95421.34;4986849;28;20402;-62
2022/11/28 03:06:26;;;;;;;3.55;2.55;;;;;;;20.96;43.40;95422.84;5004516;28;20046;-63
2022/11/28 03:08:54;;;;;;;3.88;2.70;;;;;;;20.96;43.50;95421.59;5003925;28;20080;-61
2022/11/28 03:11:33;;;;;;;4.25;2.85;;;;;;;20.94;43.38;95436.13;5003901;28;20140;-61
2022/11/28 03:14:20;;;;;;;4.70;2.92;;;;;;;20.95;43.32;95426.78;5005149;28;20041;-61
2022/11/28 03:17:15;;;;;;;4.68;2.80;;;;;;;20.86;43.28;95416.81;5004069;28;20088;-61
2022/11/28 03:20:05;;;;;;;3.75;2.70;;;;;;;20.21;43.25;95316.66;4970834;28;20060;-60
2022/11/28 03:22:36;;;;;;;;;;;;;;;20.94;43.32;95430.69;5004465;28;20054;-61
2022/11/28 03:25:23;;;;;;;3.85;2.67;;;;;;;20.85;43.21;95411.88;4985968;28;20460;-61
2022/11/28 03:28:10;;;;;;;3.33;2.80;;;;;;;20.93;43.34;95434.66;4988688;28;20430;-61
2022/11/28 03:31:01;;;;;;;4.18;2.80;;;;;;;20.15;43.55;95313.16;4985347;28;20073;-63
2022/11/28 03:33:29;;;;;;;3.78;2.75;;;;;;;20.91;43.37;95431.66;4966854;28;20042;-60
2022/11/28 03:36:02;;;;;;;4.25;2.50;;;;;;;19.50;43.13;95220.41;4966280;28;20395;-63
2022/11/28 03:38:33;;;;;;;3.35;2.15;;;;;;;20.91;43.29;95431.66;4973680;28;20661;-61
2022/11/28 03:41:00;;;;;;;3.95;2.53;;;;;;;20.88;43.23;95421.78;4991082;28;20033;-62
2022/11/28 03:43:29;;;;;;;3.33;2.53;;;;;;;20.92;43.19;95422.31;5008508;28;20147;-62
2022/11/28 03:45:57;;;;;;;3.47;2.42;;;;;;;20.92;43.23;95427.72;4990811;28;20054;-61
2022/11/28 03:48:43;;;;;;;3.67;2.83;;;;;;;20.89;43.43;95423.28;4972062;28;20147;-60
2022/11/28 03:51:13;;;;;;;3.28;2.58;;;;;;;20.89;43.58;95423.28;4990416;28;20204;-61
2022/11/28 03:53:48;;;;;;;3.78;2.60;;;;;;;20.87;43.37;95426.47;4987625;28;20129;-61
2022/11/28 03:56:16;;;;;;;3.60;2.40;;;;;;;20.89;43.40;95428.69;5006965;28;20033;-61
2022/11/28 03:58:55;;;;;;;3.67;2.65;;;;;;;20.86;43.31;95424.22;4974557;28;20038;-62
2022/11/28 04:01:24;;;;;;;3.65;2.50;;;;;;;20.86;43.37;95424.22;4986188;28;20489;-62
2022/11/28 04:04:18;;;;;;;3.50;2.63;;;;;;;20.85;43.33;95422.75;4998876;28;20522;-61
2022/11/28 04:06:52;;;;;;;3.50;2.45;;;;;;;20.85;43.42;95411.88;4980304;28;20105;-60
2022/11/28 04:09:19;;;;;;;3.45;2.42;;;;;;;20.22;43.34;95339.09;4984159;28;20485;-62
2022/11/28 04:11:53;;;;;;;3.22;2.40;;;;;;;20.65;43.47;95387.53;4973343;28;20068;-63
2022/11/28 04:14:46;;;;;;;3.33;2.28;;;;;;;20.84;43.20;95411.16;4974233;28;20033;-60
2022/11/28 04:17:23;;;;;;;3.30;2.53;;;;;;;20.85;43.31;95406.44;4987109;28;20125;-62
2022/11/28 04:19:50;;;;;;;3.15;2.20;;;;;;;20.11;43.28;95307.19;5002250;28;20467;-63
2022/11/28 04:22:43;;;;;;;3.42;2.20;;;;;;;20.59;43.17;95378.59;4970839;28;20530;-61
2022/11/28 04:25:11;;;;;;;3.00;2.13;;;;;;;20.82;43.45;95423.69;5002175;28;20167;-60
2022/11/28 04:27:37;;;;;;;2.92;2.20;;;;;;;20.77;43.68;95416.28;5006628;28;20066;-62
2022/11/28 04:30:03;;;;;;;3.55;2.50;;;;;;;20.80;43.48;95451.31;4989058;28;20046;-62
2022/11/28 04:32:29;;;;;;;2.85;2.05;;;;;;;20.80;43.49;95426.16;4969413;28;20046;-61
2022/11/28 04:34:58;;;;;;;3.05;2.15;;;;;;;20.82;43.45;95429.13;4962784;28;20042;-60
2022/11/28 04:37:23;;;;;;;3.40;2.20;;;;;;;20.82;43.15;95423.69;4970886;28;20050;-60
2022/11/28 04:39:49;;;;;;;3.22;2.30;;;;;;;20.78;43.31;95417.75;4988627;28;20090;-61
2022/11/28 04:42:29;;;;;;;3.00;2.08;;;;;;;20.28;43.55;95353.44;4988757;28;20057;-61
2022/11/28 04:45:02;;;;;;;3.50;2.30;;;;;;;20.72;43.37;95414.25;4989433;28;20509;-61
2022/11/28 04:47:27;;;;;;;3.92;2.40;;;;;;;20.77;43.27;95435.28;4970866;28;20047;-62
2022/11/28 04:49:53;;;;;;;3.17;2.20;;;;;;;20.77;43.46;95437.97;4988488;28;20187;-61
2022/11/28 04:52:34;;;;;;;3.22;2.13;;;;;;;20.79;43.63;95440.94;4988666;28;20054;-61
2022/11/28 04:55:38;;;;;;;3.17;2.00;;;;;;;20.79;43.37;95440.94;4985732;28;20039;-63
2022/11/28 04:58:23;;;;;;;2.90;2.22;;;;;;;20.76;43.45;95441.91;4992377;28;20053;-62
2022/11/28 05:00:49;;;;;;;2.80;2.25;;;;;;;19.29;43.23;95216.28;4974185;28;20515;-61
2022/11/28 05:03:14;;;;;;;4.57;2.47;;;;;;;20.87;43.52;95456.31;4972577;28;20160;-62
2022/11/28 05:05:41;;;;;;;3.08;2.00;;;;;;;20.99;43.17;95439.63;4987804;28;20129;-62
2022/11/28 05:08:07;;;;;;;3.05;2.15;;;;;;;21.12;42.95;95442.69;4986950;28;20214;-61
2022/11/28 05:10:33;;;;;;;2.97;2.05;;;;;;;21.33;42.59;95446.78;4970828;28;20685;-61
2022/11/28 05:12:59;;;;;;;2.60;1.88;;;;;;;21.32;42.50;95441.84;5003954;28;20058;-62
2022/11/28 05:15:24;;;;;;;2.78;1.90;;;;;;;21.25;42.40;95434.84;5005224;28;20557;-62
2022/11/28 05:17:50;;;;;;;2.90;1.80;;;;;;;21.48;42.40;95441.97;5002474;28;20050;-61
2022/11/28 05:20:15;;;;;;;2.55;1.80;;;;;;;20.98;41.96;95356.72;5004214;28;20049;-61
2022/11/28 05:22:41;;;;;;;2.58;2.00;;;;;;;21.67;41.76;95437.59;4986626;28;20037;-61
2022/11/28 05:25:06;;;;;;;2.65;1.60;;;;;;;21.68;41.91;95433.66;4987340;28;20069;-63
2022/11/28 05:27:32;;;;;;;2.45;1.90;;;;;;;21.79;41.54;95453.44;5005416;28;20058;-59
2022/11/28 05:29:57;;;;;;;3.53;1.88;;;;;;;21.77;41.76;95425.28;4987946;28;20042;-62
2022/11/28 05:32:22;;;;;;;2.38;1.90;;;;;;;21.72;41.81;95429.47;4985904;28;20470;-61
2022/11/28 05:34:48;;;;;;;2.72;1.70;;;;;;;21.88;41.50;95433.47;4971951;28;20022;-61
2022/11/28 05:37:13;;;;;;;3.13;1.90;;;;;;;21.87;41.31;95421.09;5003491;28;20041;-60
2022/11/28 05:39:39;;;;;;;2.40;1.70;;;;;;;22.05;41.19;95430.31;4968064;28;20053;-61
2022/11/28 05:42:04;;;;;;;2.30;1.55;;;;;;;22.07;41.06;95433.28;5003144;28;20204;-60
2022/11/28 05:44:30;;;;;;;2.70;1.67;;;;;;;21.45;40.51;95328.78;5003203;28;20487;-62
2022/11/28 05:46:55;;;;;;;2.40;1.48;;;;;;;22.05;40.92;95430.31;5001179;28;20022;-62
2022/11/28 05:49:21;;;;;;;2.30;1.80;;;;;;;22.24;40.81;95431.41;5003575;28;20045;-62
2022/11/28 05:51:47;;;;;;;2.10;1.60;;;;;;;22.22;40.64;95417.53;5004584;28;20073;-63
2022/11/28 05:54:13;;;;;;;2.53;1.73;;;;;;;22.35;40.89;95447.75;4987298;28;20045;-61
2022/11/28 05:56:38;;;;;;;2.50;1.52;;;;;;;22.73;40.22;95417.09;4984487;28;20053;-63
2022/11/28 05:59:04;;;;;;;1.88;1.45;;;;;;;22.17;40.16;95350.25;5004220;28;20380;-62
2022/11/28 06:01:29;;;;;;;2.92;1.60;;;;;;;22.59;40.19;95424.25;5005680;28;20763;-63
2022/11/28 06:03:59;;;;;;;1.92;1.35;;;;;;;22.63;40.43;95429.44;4986406;28;20037;-63
2022/11/28 06:06:28;;;;;;;1.90;1.50;;;;;;;22.55;40.78;95461.84;5004126;28;20046;-63
2022/11/28 06:08:54;;;;;;;1.80;1.33;;;;;;;22.26;40.28;95325.53;4986364;28;20049;-61
2022/11/28 06:11:20;;;;;;;1.92;1.38;;;;;;;22.24;40.26;95325.31;4986944;28;20037;-61
2022/11/28 06:13:46;;;;;;;2.03;1.52;;;;;;;22.90;40.05;95441.09;4988257;28;20117;-61
2022/11/28 06:16:16;;;;;;;1.75;1.40;;;;;;;23.04;40.09;95412.91;4961502;28;20097;-62
2022/11/28 06:18:42;;;;;;;2.92;1.63;;;;;;;23.30;37.91;95421.50;4969833;28;20044;-63
2022/11/28 06:21:08;;;;;;;2.45;1.48;;;;;;;22.75;39.32;95426.25;4986517;28;20042;-63
2022/11/28 06:23:33;;;;;;;2.03;1.20;;;;;;;22.87;39.94;95427.00;4970514;28;20041;-65
2022/11/28 06:26:09;;;;;;;1.80;1.30;;;;;;;23.12;39.83;95427.50;5005721;28;20458;-61
2022/11/28 06:28:35;;;;;;;1.52;1.27;;;;;;;23.26;39.35;95410.16;4988104;28;20152;-62
2022/11/28 06:31:00;;;;;;;1.80;1.00;;;;;;;21.78;40.00;95231.78;5003678;28;20133;-60
2022/11/28 06:33:26;;;;;;;1.88;1.20;;;;;;;23.31;39.58;95419.56;5003357;28;20045;-61
2022/11/28 06:35:57;;;;;;;2.10;1.50;;;;;;;23.39;39.12;95413.06;5002996;28;20534;-60
2022/11/28 06:38:22;;;;;;;2.15;1.20;;;;;;;22.83;38.73;95312.16;4985861;28;20037;-62
2022/11/28 06:40:48;;;;;;;1.50;1.10;;;;;;;23.58;38.91;95416.75;5005770;28;20022;-62
2022/11/28 06:43:13;;;;;;;2.08;1.30;;;;;;;23.35;39.24;95393.53;5004256;28;20057;-61
2022/11/28 06:45:39;;;;;;;2.17;1.20;;;;;;;23.37;39.12;95425.72;5003988;28;20065;-61
2022/11/28 06:48:04;;;;;;;9.65;2.15;;;;;;;23.49;39.33;95408.84;5004369;28;20787;-62
2022/11/28 06:50:31;;;;;;;9.05;1.92;;;;;;;23.46;39.53;95412.56;5004246;28;20065;-63
2022/11/28 06:52:56;;;;;;;7.50;1.73;;;;;;;23.65;39.26;95424.44;5005555;28;20029;-62
2022/11/28 06:55:21;;;;;;;12.45;2.00;;;;;;;23.25;38.77;95305.09;5005672;28;20163;-63
2022/11/28 06:57:47;;;;;;;12.40;1.90;;;;;;;23.62;39.00;95411.78;5004891;28;20065;-62
2022/11/28 07:00:13;;;;;;;10.48;2.28;;;;;;;23.75;38.68;95406.53;4988116;28;20045;-62
2022/11/28 07:02:38;;;;;;;9.43;2.03;;;;;;;23.75;39.40;95414.72;4987237;28;20034;-60
2022/11/28 07:05:04;;;;;;;11.02;2.25;;;;;;;23.84;38.62;95403.53;5005379;28;20521;-63
2022/11/28 07:07:29;;;;;;;9.35;2.00;;;;;;;24.00;38.20;95409.66;4986803;28;20084;-63
2022/11/28 07:09:55;;;;;;;12.95;2.55;;;;;;;24.27;37.90;95408.75;5005566;28;20042;-63
2022/11/28 07:12:20;;;;;;;11.77;2.30;;;;;;;24.18;38.22;95384.50;5004772;28;20494;-61
2022/11/28 07:14:46;;;;;;;10.98;1.88;;;;;;;23.65;37.91;95301.75;4987131;28;20529;-63
2022/11/28 07:17:11;;;;;;;9.82;2.13;;;;;;;23.64;37.73;95292.09;4987105;28;20436;-62
2022/11/28 07:19:37;;;;;;;9.75;2.00;;;;;;;24.55;37.58;95412.09;4977988;28;20037;-62
2022/11/28 07:22:02;;;;;;;9.93;1.88;;;;;;;24.48;37.59;95397.00;5004353;28;20038;-63
2022/11/28 07:24:29;;;;;;;9.45;1.73;;;;;;;24.33;37.60;95374.00;5004208;28;20049;-63
2022/11/28 07:26:54;;;;;;;9.98;1.88;;;;;;;24.44;37.29;95401.25;4967739;28;20065;-61
2022/11/28 07:29:20;;;;;;;8.70;2.00;;;;;;;24.36;37.90;95416.66;4981265;28;20565;-61
2022/11/28 07:31:45;;;;;;;14.13;2.60;;;;;;;24.44;37.70;95398.53;4985293;28;20092;-62
2022/11/28 07:34:11;;;;;;;12.93;2.17;;;;;;;24.37;37.97;95407.97;4984204;28;20049;-63
2022/11/28 07:36:36;;;;;;;8.82;2.00;;;;;;;24.57;37.68;95409.59;5004306;28;20056;-64
2022/11/28 07:39:03;;;;;;;7.53;1.90;;;;;;;23.93;37.36;95303.81;4971701;28;20133;-59
2022/11/28 07:41:28;;;;;;;11.75;2.03;;;;;;;24.66;37.41;95406.53;4962818;28;20173;-62
2022/11/28 07:43:56;;;;;;;13.15;2.15;;;;;;;23.38;37.40;95221.56;4970791;28;20042;-62
2022/11/28 07:46:21;;;;;;;11.38;2.55;;;;;;;24.64;37.24;95403.59;4982573;28;20061;-62
2022/11/28 07:48:47;;;;;;;10.45;2.47;;;;;;;24.58;37.37;95444.56;4984273;28;20054;-61
2022/11/28 07:51:20;;;;;;;11.13;2.28;;;;;;;22.76;37.44;95144.59;5002027;28;20137;-63
2022/11/28 07:53:46;;;;;;;9.68;2.05;;;;;;;24.50;37.81;95399.22;4965037;28;20128;-61
2022/11/28 07:56:14;;;;;;;11.50;2.25;;;;;;;24.36;37.50;95390.13;4973742;28;20129;-64
2022/11/28 07:58:39;;;;;;;9.90;2.40;;;;;;;24.30;37.56;95396.81;4969641;28;20073;-62
2022/11/28 08:01:11;;;;;;;9.48;1.85;;;;;;;24.31;37.80;95403.78;5000751;28;20156;-62
2022/11/28 08:03:37;;;;;;;10.70;2.35;;;;;;;24.17;37.94;95385.75;4967170;28;20050;-60
2022/11/28 08:06:03;;;;;;;12.30;2.47;;;;;;;24.26;37.50;95388.19;5000857;28;20069;-61
2022/11/28 08:08:28;;;;;;;8.98;1.85;;;;;;;24.25;37.57;95397.63;4968201;28;20080;-63
2022/11/28 08:11:01;;;;;;;12.95;2.17;;;;;;;24.08;38.36;95402.44;5002545;28;20041;-61
2022/11/28 08:13:27;;;;;;;10.02;2.90;;;;;;;24.19;37.99;95391.44;4951871;28;20046;-61
2022/11/28 08:15:52;;;;;;;10.18;2.35;;;;;;;24.21;38.03;95388.22;4984706;28;20057;-60
2022/11/28 08:18:18;;;;;;;7.00;2.10;;;;;;;24.17;37.77;95393.19;4968691;28;20049;-60
2022/11/28 08:20:43;;;;;;;9.35;2.22;;;;;;;24.08;38.34;95391.50;4985078;28;20042;-61
2022/11/28 08:23:09;;;;;;;12.98;2.75;;;;;;;24.10;37.91;95394.47;4987167;28;20580;-61
2022/11/28 08:25:34;;;;;;;9.98;2.20;;;;;;;24.03;37.95;95430.47;4987523;28;20037;-61
2022/11/28 08:28:00;;;;;;;9.98;2.13;;;;;;;23.42;38.00;95313.94;4986033;28;20057;-61
2022/11/28 08:30:25;;;;;;;6.95;2.33;;;;;;;23.19;37.86;95290.75;4983069;28;20042;-62
2022/11/28 08:32:50;;;;;;;9.05;2.33;;;;;;;23.79;38.78;95396.13;4988042;28;20046;-62
2022/11/28 08:35:16;;;;;;;8.73;2.40;;;;;;;23.75;38.39;95390.19;5005864;28;20529;-61
2022/11/28 08:37:41;;;;;;;9.45;2.20;;;;;;;23.84;38.11;95381.72;5005942;28;20117;-63
2022/11/28 08:40:08;;;;;;;7.72;2.22;;;;;;;23.90;38.05;95375.75;5004494;28;20523;-62
2022/11/28 08:42:33;;;;;;;7.65;2.20;;;;;;;23.91;38.49;95388.13;5005181;28;20050;-61
2022/11/28 08:44:59;;;;;;;7.13;2.13;;;;;;;23.94;38.33;95386.38;4970898;28;20042;-61
2022/11/28 08:47:24;;;;;;;8.10;2.08;;;;;;;23.90;38.49;95381.19;4952158;28;20078;-61
2022/11/28 08:49:50;;;;;;;9.43;2.67;;;;;;;23.85;38.49;95367.56;4973248;28;20415;-61
2022/11/28 08:52:16;;;;;;;7.88;2.60;;;;;;;23.90;38.15;95380.44;4964380;28;20446;-63
2022/11/28 08:54:42;;;;;;;8.60;2.22;;;;;;;23.78;37.76;95362.66;4970695;28;20034;-62
2022/11/28 08:57:07;;;;;;;7.88;2.35;;;;;;;23.75;38.42;95376.53;4966659;28;20057;-61
2022/11/28 08:59:33;;;;;;;7.95;2.15;;;;;;;23.70;38.39;95388.22;4970824;28;20404;-60
2022/11/28 09:01:58;;;;;;;8.05;2.45;;;;;;;23.25;38.73;95299.66;4972621;28;20042;-59
2022/11/28 09:04:23;;;;;;;7.32;2.78;;;;;;;22.95;38.29;95249.00;4970709;28;20050;-61
2022/11/28 09:06:50;;;;;;;8.20;2.38;;;;;;;23.67;38.57;95353.78;4970051;28;20049;-62
2022/11/28 09:09:16;;;;;;;8.20;2.25;;;;;;;23.71;38.74;95357.00;4986683;28;20442;-61
2022/11/28 09:11:41;;;;;;;8.73;2.30;;;;;;;23.77;38.35;95371.34;4986742;28;20077;-61
2022/11/28 09:14:07;;;;;;;9.90;2.35;;;;;;;23.63;38.39;95372.34;5004677;28;20854;-61
2022/11/28 09:16:32;;;;;;;8.15;2.33;;;;;;;23.74;38.52;95356.00;4956122;28;20096;-60
2022/11/28 09:18:58;;;;;;;7.45;2.63;;;;;;;23.66;38.22;95344.88;5004213;28;20072;-62
2022/11/28 09:21:24;;;;;;;7.18;2.13;;;;;;;23.69;38.24;95359.47;5004864;28;20042;-63
2022/11/28 09:23:49;;;;;;;8.77;2.28;;;;;;;23.16;38.33;95272.69;4986734;28;20089;-61
2022/11/28 09:26:18;;;;;;;7.28;2.55;;;;;;;23.55;38.61;95339.41;5005739;28;20635;-60
2022/11/28 09:28:44;;;;;;;6.25;2.40;;;;;;;23.65;38.47;95337.19;5004371;28;20030;-61
2022/11/28 09:31:11;;;;;;;5.20;2.05;;;;;;;23.66;38.35;95341.38;5001330;28;21202;-62
2022/11/28 09:33:36;;;;;;;8.98;2.88;;;;;;;23.64;38.49;95336.44;4984673;28;20037;-63
2022/11/28 09:36:10;;;;;;;6.40;2.47;;;;;;;23.62;38.73;95330.72;5004731;28;20507;-62
2022/11/28 09:38:35;;;;;;;8.05;2.45;;;;;;;23.27;38.28;95269.91;4985268;28;20049;-64
2022/11/28 09:41:01;;;;;;;6.20;1.83;;;;;;;23.56;38.74;95323.81;5002376;28;20135;-64
2022/11/28 09:43:30;;;;;;;5.20;2.03;;;;;;;23.69;38.34;95308.41;4969087;28;20422;-61
2022/11/28 09:45:56;;;;;;;7.53;2.22;;;;;;;23.71;38.63;95305.19;4969838;28;20049;-62
2022/11/28 09:48:29;;;;;;;6.50;2.00;;;;;;;23.71;38.72;95302.47;5004403;28;20060;-62
2022/11/28 09:50:57;;;;;;;7.90;2.10;;;;;;;23.52;38.56;95301.53;4984302;28;20046;-62
2022/11/28 09:53:49;;;;;;;5.13;1.90;;;;;;;23.60;38.41;95318.81;4972191;28;20042;-61
2022/11/28 09:56:15;;;;;;;4.90;2.15;;;;;;;23.60;38.94;95286.13;4993478;28;20033;-61
2022/11/28 09:58:43;;;;;;;5.13;2.00;;;;;;;23.67;38.65;95280.16;4979219;28;20029;-62
2022/11/28 10:01:24;;;;;;;6.55;2.20;;;;;;;22.54;38.98;95095.69;4992855;28;20047;-62
2022/11/28 10:04:03;;;;;;;4.28;1.60;;;;;;;23.81;38.36;95290.00;5008464;28;20053;-63
2022/11/28 10:06:58;;;;;;;7.97;1.95;;;;;;;23.87;38.50;95289.47;5005217;28;20050;-66
2022/11/28 10:09:39;;;;;;;6.28;1.90;;;;;;;23.83;38.50;95298.44;4984430;28;20153;-63
2022/11/28 10:12:33;;;;;;;4.63;1.70;;;;;;;23.75;38.83;95292.00;4981331;28;20115;-62
2022/11/28 10:15:10;;;;;;;2.50;1.40;;;;;;;23.74;39.30;95307.63;4953075;28;20442;-61
2022/11/28 10:17:46;;;;;;;6.63;1.92;;;;;;;23.59;39.51;95257.38;4978210;28;20050;-60
2022/11/28 10:20:16;;;;;;;4.85;1.67;;;;;;;23.35;44.99;95238.19;4966157;28;20080;-62
2022/11/28 10:22:45;;;;;;;;;;;;;;;23.52;51.89;95279.72;4997198;28;20117;-61
2022/11/28 10:25:28;;;;;;;3.88;1.48;;;;;;;23.42;55.70;95275.78;4995023;28;20020;-62
2022/11/28 10:27:54;;;;;;;4.97;2.00;;;;;;;23.23;56.01;95274.16;4983361;28;20042;-64
2022/11/28 10:30:24;;;;;;;4.85;2.00;;;;;;;23.13;55.74;95268.25;5004528;28;20128;-64
2022/11/28 10:32:56;;;;;;;3.13;1.98;;;;;;;22.88;56.25;95238.59;5003822;28;20041;-63
2022/11/28 10:35:24;;;;;;;4.45;1.95;;;;;;;22.95;57.51;95260.63;4964682;28;20065;-66
2022/11/28 10:37:49;;;;;;;4.40;1.90;;;;;;;22.84;56.93;95226.47;4986165;28;20512;-61
2022/11/28 10:40:15;;;;;;;4.97;1.85;;;;;;;23.37;55.54;95260.22;5004546;28;20038;-63
2022/11/28 10:42:42;;;;;;;3.50;1.90;;;;;;;23.36;57.17;95250.56;5004239;28;20046;-63
2022/11/28 10:45:13;;;;;;;5.03;2.25;;;;;;;23.20;58.07;95259.56;5003798;28;20034;-62
2022/11/28 10:48:06;;;;;;;5.20;1.95;;;;;;;23.09;57.94;95254.16;5004311;28;20046;-64
2022/11/28 10:51:04;;;;;;;6.63;1.85;;;;;;;23.14;57.41;95228.88;5003180;28;20057;-62
2022/11/28 10:53:42;;;;;;;4.18;1.60;;;;;;;22.98;57.70;95248.75;4974801;28;20117;-62
2022/11/28 10:56:35;;;;;;;3.80;1.90;;;;;;;23.17;56.29;95260.56;5000467;28;20036;-63
2022/11/28 10:59:13;;;;;;;4.10;1.83;;;;;;;23.17;57.79;95238.78;4972564;28;20123;-62
2022/11/28 11:01:39;;;;;;;3.22;1.70;;;;;;;23.36;56.39;95250.56;4980159;28;20042;-60
2022/11/28 11:04:05;;;;;;;5.05;1.80;;;;;;;22.32;57.23;95141.28;4967042;28;20042;-60
2022/11/28 11:06:30;;;;;;;4.90;2.00;;;;;;;22.01;57.53;95059.25;4968782;28;20055;-65
2022/11/28 11:08:56;;;;;;;4.28;2.10;;;;;;;23.41;56.14;95247.06;4983337;28;20077;-63
2022/11/28 11:11:29;;;;;;;5.65;1.92;;;;;;;23.21;56.00;95225.59;5001006;28;20041;-64
2022/11/28 11:14:03;;;;;;;6.45;1.77;;;;;;;23.41;55.72;95242.34;4966865;28;20030;-63
2022/11/28 11:16:49;;;;;;;6.53;2.00;;;;;;;23.37;55.03;95252.03;4984018;28;20096;-62
2022/11/28 11:19:34;;;;;;;5.43;1.95;;;;;;;21.89;58.42;95040.75;5002426;28;20054;-61
2022/11/28 11:22:14;;;;;;;5.03;1.88;;;;;;;23.01;58.28;95225.94;4984473;28;20049;-60
2022/11/28 11:24:39;;;;;;;4.38;1.48;;;;;;;22.88;58.01;95187.63;4984444;28;20112;-60
2022/11/28 11:27:32;;;;;;;5.45;1.75;;;;;;;23.16;57.97;95220.94;4982969;28;20049;-62
2022/11/28 11:29:57;;;;;;;3.20;1.60;;;;;;;23.38;56.82;95215.38;4981853;28;20045;-60
2022/11/28 11:32:25;;;;;;;6.65;1.70;;;;;;;22.68;56.60;95115.69;4969363;28;20055;-60
2022/11/28 11:34:51;;;;;;;5.22;2.00;;;;;;;23.42;57.37;95229.47;5000222;28;20049;-59
2022/11/28 11:37:33;;;;;;;4.63;1.80;;;;;;;22.58;58.01;95112.47;4984460;28;20038;-62
2022/11/28 11:39:59;;;;;;;6.10;1.83;;;;;;;23.31;57.98;95205.00;4984816;28;20121;-59
2022/11/28 11:42:25;;;;;;;3.47;1.80;;;;;;;23.34;57.76;95204.00;4953403;28;20125;-58
2022/11/28 11:44:51;;;;;;;4.30;1.50;;;;;;;23.41;57.08;95192.56;4969319;28;20084;-59
2022/11/28 11:47:16;;;;;;;3.60;1.50;;;;;;;23.41;58.21;95195.28;5002825;28;20470;-62